Time;durP1;ratioP1;P1;durP2;ratioP2;P2;SDS_P1;SDS_P2;PMS_P1;PMS_P2;Temp;Humidity;BMP_temperature;BMP_pressure;BME280_temperature;BME280_humidity;BME280_pressure;Samples;Min_cycle;Max_cycle;Signal;HPM_P1;HPM_P2
2021/12/26 00:00:49;;;;;;;19.95;7.60;;;13.90;99.90;;;;;;5090720;28;20043;-62
2021/12/26 00:03:22;;;;;;;18.35;8.40;;;13.80;99.90;;;;;;5092362;28;20444;-62
2021/12/26 00:05:51;;;;;;;15.63;8.38;;;13.80;99.90;;;;;;5110429;28;20146;-63
2021/12/26 00:08:19;;;;;;;17.45;8.85;;;13.80;99.90;;;;;;5094008;28;20048;-62
2021/12/26 00:10:48;;;;;;;16.02;8.23;;;13.80;99.90;;;;;;5111312;28;20032;-62
2021/12/26 00:13:18;;;;;;;19.98;9.10;;;13.80;99.90;;;;;;5094051;28;20482;-62
2021/12/26 00:15:46;;;;;;;20.08;8.07;;;13.80;99.90;;;;;;5113146;28;20115;-62
2021/12/26 00:18:13;;;;;;;22.23;8.25;;;13.90;99.90;;;;;;5114308;28;20069;-62
2021/12/26 00:20:41;;;;;;;16.58;7.93;;;13.90;99.90;;;;;;5097083;28;20139;-62
2021/12/26 00:23:09;;;;;;;14.50;7.75;;;13.90;99.90;;;;;;5097387;28;20044;-62
2021/12/26 00:25:36;;;;;;;17.67;8.23;;;13.90;99.90;;;;;;5113723;28;20097;-62
2021/12/26 00:28:04;;;;;;;21.98;7.15;;;14.00;99.90;;;;;;5103622;28;20032;-61
2021/12/26 00:30:32;;;;;;;16.90;8.45;;;13.90;99.90;;;;;;5111110;28;20064;-62
2021/12/26 00:32:59;;;;;;;19.10;8.65;;;14.00;99.90;;;;;;5094783;28;20031;-62
2021/12/26 00:35:27;;;;;;;21.25;8.40;;;13.90;99.90;;;;;;5079876;28;20599;-62
2021/12/26 00:37:56;;;;;;;18.08;8.15;;;14.00;99.90;;;;;;5114458;28;20135;-62
2021/12/26 00:40:26;;;;;;;15.88;7.20;;;14.00;99.90;;;;;;5096647;28;20579;-62
2021/12/26 00:42:56;;;;;;;14.90;7.20;;;14.00;99.90;;;;;;5079841;28;20044;-61
2021/12/26 00:45:24;;;;;;;14.65;7.63;;;14.00;99.90;;;;;;5108702;28;20056;-61
2021/12/26 00:47:52;;;;;;;18.90;8.40;;;14.00;99.90;;;;;;5112643;28;20508;-63
2021/12/26 00:50:25;;;;;;;19.88;8.70;;;14.00;99.90;;;;;;5097424;28;20439;-61
2021/12/26 00:52:53;;;;;;;20.73;7.85;;;14.00;99.90;;;;;;5070805;28;20039;-61
2021/12/26 00:55:21;;;;;;;20.45;7.15;;;14.00;99.90;;;;;;5114415;28;20130;-61
2021/12/26 00:57:50;;;;;;;21.52;7.60;;;14.00;99.90;;;;;;5096677;28;20048;-61
2021/12/26 01:00:23;;;;;;;29.40;9.30;;;14.00;99.90;;;;;;5091425;28;20032;-61
2021/12/26 01:02:52;;;;;;;12.73;7.40;;;14.00;99.90;;;;;;5089388;28;20036;-61
2021/12/26 01:05:23;;;;;;;31.10;9.07;;;14.00;99.90;;;;;;5087935;28;20044;-61
2021/12/26 01:08:03;;;;;;;15.40;8.30;;;14.00;99.90;;;;;;5095910;28;20038;-62
2021/12/26 01:10:38;;;;;;;17.33;6.70;;;14.00;99.90;;;;;;5100269;28;20050;-61
2021/12/26 01:13:25;;;;;;;15.05;8.30;;;14.10;99.90;;;;;;5096894;28;20378;-61
2021/12/26 01:16:04;;;;;;;15.38;7.07;;;14.00;99.90;;;;;;5072865;28;20044;-61
2021/12/26 01:18:36;;;;;;;14.75;7.28;;;14.10;99.90;;;;;;5076656;28;20038;-61
2021/12/26 01:21:18;;;;;;;20.02;6.95;;;14.10;99.90;;;;;;5105826;28;20036;-61
2021/12/26 01:24:00;;;;;;;18.33;8.32;;;14.10;99.90;;;;;;5095326;28;20050;-61
2021/12/26 01:26:29;;;;;;;28.77;9.45;;;14.10;99.90;;;;;;5074419;28;20115;-61
2021/12/26 01:28:57;;;;;;;17.75;8.05;;;14.10;99.90;;;;;;5096361;28;20066;-61
2021/12/26 01:31:26;;;;;;;21.77;7.57;;;14.10;99.90;;;;;;5096000;28;20032;-61
2021/12/26 01:34:08;;;;;;;15.55;6.30;;;14.10;99.90;;;;;;5096375;28;20035;-62
2021/12/26 01:36:54;;;;;;;16.55;7.85;;;14.10;99.90;;;;;;5096059;28;20052;-61
2021/12/26 01:39:41;;;;;;;24.50;8.63;;;14.10;99.90;;;;;;5105923;28;20035;-61
2021/12/26 01:42:25;;;;;;;23.15;8.48;;;14.10;99.90;;;;;;5080344;28;20297;-61
2021/12/26 01:45:16;;;;;;;34.63;9.82;;;14.10;99.90;;;;;;5099240;28;20055;-61
2021/12/26 01:48:05;;;;;;;25.35;10.00;;;14.10;99.90;;;;;;5107722;28;20108;-61
2021/12/26 01:50:41;;;;;;;16.08;8.50;;;14.00;99.90;;;;;;5079658;27;20154;-61
2021/12/26 01:53:10;;;;;;;19.15;9.32;;;14.00;99.90;;;;;;5091788;27;20053;-61
2021/12/26 01:55:45;;;;;;;32.55;8.80;;;14.00;99.90;;;;;;5117770;27;20424;-61
2021/12/26 01:58:18;;;;;;;31.07;8.47;;;14.00;99.90;;;;;;5135831;27;20062;-61
2021/12/26 02:00:51;;;;;;;19.45;9.10;;;14.00;99.90;;;;;;5117376;27;20034;-61
2021/12/26 02:03:19;;;;;;;18.58;9.88;;;14.00;99.90;;;;;;5101028;27;20134;-61
2021/12/26 02:05:46;;;;;;;18.85;7.40;;;14.00;99.90;;;;;;5100855;27;20502;-61
2021/12/26 02:08:16;;;;;;;20.70;9.45;;;14.00;99.90;;;;;;5117616;27;20069;-61
2021/12/26 02:10:45;;;;;;;24.92;9.93;;;14.10;99.90;;;;;;5100229;27;20145;-61
2021/12/26 02:13:13;;;;;;;21.15;8.25;;;14.00;99.90;;;;;;5100466;27;20050;-61
2021/12/26 02:15:42;;;;;;;20.00;8.32;;;14.00;99.90;;;;;;5117609;27;20031;-61
2021/12/26 02:18:13;;;;;;;25.17;7.75;;;14.00;99.90;;;;;;5117704;27;20055;-61
2021/12/26 02:23:29;;;;;;;19.73;8.80;;;14.00;99.90;;;;;;5100511;27;20404;-61
2021/12/26 02:28:28;;;;;;;23.60;7.20;;;14.00;99.90;;;;;;5117295;27;20050;-61
2021/12/26 02:30:58;;;;;;;23.48;8.90;;;14.00;99.90;;;;;;5117443;27;20149;-61
2021/12/26 02:33:26;;;;;;;13.88;7.40;;;14.10;99.90;;;;;;5100219;27;20354;-61
2021/12/26 02:35:53;;;;;;;22.55;9.95;;;14.00;99.90;;;;;;5117168;27;20031;-61
2021/12/26 02:38:22;;;;;;;33.33;8.55;;;14.00;99.90;;;;;;5099737;27;20038;-61
2021/12/26 02:40:52;;;;;;;20.15;8.15;;;14.00;99.90;;;;;;5116839;27;20047;-61
2021/12/26 02:43:22;;;;;;;24.65;10.02;;;14.00;99.90;;;;;;5117057;27;20480;-61
2021/12/26 02:45:50;;;;;;;20.35;8.63;;;14.00;99.90;;;;;;5100145;27;20553;-61
2021/12/26 02:48:18;;;;;;;15.35;7.82;;;14.00;99.90;;;;;;5116932;27;20039;-61
2021/12/26 02:50:47;;;;;;;17.35;8.00;;;14.10;99.90;;;;;;5117129;27;20059;-61
2021/12/26 02:53:20;;;;;;;17.52;8.27;;;14.10;99.90;;;;;;5116574;27;20481;-61
2021/12/26 02:55:50;;;;;;;22.02;10.07;;;14.00;99.90;;;;;;5116996;27;20480;-61
2021/12/26 02:58:18;;;;;;;23.63;10.90;;;14.00;99.90;;;;;;5099847;27;20082;-61
2021/12/26 03:00:51;;;;;;;20.73;9.40;;;14.00;99.90;;;;;;5116799;27;20514;-61
2021/12/26 03:03:19;;;;;;;21.83;8.15;;;14.00;99.90;;;;;;5135006;27;20047;-61
2021/12/26 03:05:53;;;;;;;23.38;8.68;;;14.00;99.90;;;;;;5116573;27;20485;-61
2021/12/26 03:08:21;;;;;;;22.48;9.02;;;14.00;99.90;;;;;;5116626;28;20034;-61
2021/12/26 03:10:48;;;;;;;23.05;9.07;;;14.00;99.90;;;;;;5099777;27;20477;-61
2021/12/26 03:13:16;;;;;;;38.70;10.57;;;14.00;99.90;;;;;;5116659;27;20100;-61
2021/12/26 03:15:43;;;;;;;16.15;7.47;;;14.10;99.90;;;;;;5116444;28;20043;-61
2021/12/26 03:18:11;;;;;;;27.35;8.82;;;14.10;99.90;;;;;;5134824;27;20075;-61
2021/12/26 03:20:43;;;;;;;22.15;9.38;;;14.10;99.90;;;;;;5099552;28;20043;-61
2021/12/26 03:23:14;;;;;;;18.83;8.15;;;14.00;99.90;;;;;;5116412;27;20050;-61
2021/12/26 03:25:43;;;;;;;20.15;8.38;;;14.00;99.90;;;;;;5116389;27;20565;-61
2021/12/26 03:28:11;;;;;;;23.08;11.20;;;14.00;99.90;;;;;;5116335;28;20431;-61
2021/12/26 03:30:39;;;;;;;15.60;8.65;;;14.00;99.90;;;;;;5134617;27;20043;-61
2021/12/26 03:33:10;;;;;;;21.83;9.68;;;14.00;99.90;;;;;;5116172;27;20032;-61
2021/12/26 03:35:39;;;;;;;28.35;9.93;;;13.90;99.90;;;;;;5116378;28;20039;-61
2021/12/26 03:38:10;;;;;;;26.25;9.90;;;13.90;99.90;;;;;;5116434;28;20051;-61
2021/12/26 03:41:00;;;;;;;24.98;10.15;;;13.90;99.90;;;;;;5133502;28;20366;-61
2021/12/26 03:43:28;;;;;;;27.08;10.20;;;14.00;99.90;;;;;;5116149;28;20548;-61
2021/12/26 03:45:56;;;;;;;24.13;9.80;;;13.90;99.90;;;;;;5099460;28;20157;-61
2021/12/26 03:48:25;;;;;;;21.08;9.85;;;14.00;99.90;;;;;;5134354;28;20490;-61
2021/12/26 03:50:55;;;;;;;17.80;9.15;;;14.00;99.90;;;;;;5118526;27;20047;-61
2021/12/26 03:53:22;;;;;;;21.27;9.57;;;14.00;99.90;;;;;;5103013;27;20043;-61
2021/12/26 03:55:50;;;;;;;22.52;8.43;;;14.00;99.90;;;;;;5103095;27;20489;-61
2021/12/26 03:58:19;;;;;;;26.80;8.75;;;14.00;99.90;;;;;;5120137;27;20047;-61
2021/12/26 04:00:48;;;;;;;21.08;10.43;;;14.00;99.90;;;;;;5120185;27;20507;-61
2021/12/26 04:03:19;;;;;;;16.75;9.02;;;14.00;99.90;;;;;;5120274;27;20039;-61
2021/12/26 04:06:05;;;;;;;19.30;9.25;;;14.00;99.90;;;;;;5120046;27;20076;-61
2021/12/26 04:08:39;;;;;;;16.38;8.45;;;14.00;99.90;;;;;;5103165;27;20137;-61
2021/12/26 04:11:07;;;;;;;18.38;8.30;;;14.00;99.90;;;;;;5119956;27;20053;-61
2021/12/26 04:13:36;;;;;;;24.17;8.00;;;13.90;99.90;;;;;;5120085;27;20120;-61
2021/12/26 04:16:04;;;;;;;22.45;7.95;;;13.90;99.90;;;;;;5102769;27;20050;-61
2021/12/26 04:18:32;;;;;;;28.48;10.43;;;13.90;99.90;;;;;;5102996;27;20043;-61
2021/12/26 04:21:00;;;;;;;18.17;8.57;;;13.90;99.90;;;;;;5086264;27;20043;-61
2021/12/26 04:23:33;;;;;;;23.02;9.07;;;13.90;99.90;;;;;;5102138;27;20051;-61
2021/12/26 04:26:01;;;;;;;24.90;9.57;;;13.90;99.90;;;;;;5138015;27;20039;-61
2021/12/26 04:28:28;;;;;;;25.30;9.07;;;13.90;99.90;;;;;;5119597;27;20038;-61
2021/12/26 04:30:56;;;;;;;20.50;10.18;;;13.80;99.90;;;;;;5119670;27;20053;-61
2021/12/26 04:33:24;;;;;;;26.17;10.40;;;13.80;99.90;;;;;;5137725;27;20043;-61
2021/12/26 04:35:51;;;;;;;25.75;8.95;;;13.80;99.90;;;;;;5119532;27;20507;-61
2021/12/26 04:38:20;;;;;;;25.40;10.55;;;13.80;99.90;;;;;;5102348;27;20475;-61
2021/12/26 04:40:51;;;;;;;23.63;8.50;;;13.80;99.90;;;;;;5119497;27;20050;-61
2021/12/26 04:43:39;;;;;;;30.40;10.88;;;13.80;99.90;;;;;;5102287;27;20427;-61
2021/12/26 04:46:27;;;;;;;24.25;8.35;;;13.80;99.90;;;;;;5123271;27;20063;-61
2021/12/26 04:49:02;;;;;;;23.98;10.00;;;13.70;99.90;;;;;;5137637;27;20095;-61
2021/12/26 04:51:29;;;;;;;21.73;8.77;;;13.80;99.90;;;;;;5119132;27;20129;-61
2021/12/26 04:54:02;;;;;;;20.30;8.80;;;13.80;99.90;;;;;;5119115;27;20043;-60
2021/12/26 04:56:30;;;;;;;24.58;9.48;;;13.80;99.90;;;;;;5101437;27;20523;-61
2021/12/26 04:58:57;;;;;;;25.52;9.70;;;13.80;99.90;;;;;;5119069;27;20039;-61
2021/12/26 05:01:27;;;;;;;15.20;8.95;;;13.80;99.90;;;;;;5136662;27;20092;-61
2021/12/26 05:03:54;;;;;;;22.63;8.50;;;13.80;99.90;;;;;;5118864;27;20047;-61
2021/12/26 05:06:26;;;;;;;17.10;7.32;;;13.80;99.90;;;;;;5101689;27;20096;-61
2021/12/26 05:08:54;;;;;;;32.05;9.73;;;13.80;99.90;;;;;;5118972;27;20046;-61
2021/12/26 05:11:22;;;;;;;16.45;8.35;;;13.70;99.90;;;;;;5118838;27;20050;-61
2021/12/26 05:13:49;;;;;;;17.90;8.50;;;13.70;99.90;;;;;;5118741;27;20410;-61
2021/12/26 05:16:16;;;;;;;22.27;9.43;;;13.70;99.90;;;;;;5118821;27;20501;-61
2021/12/26 05:18:44;;;;;;;24.00;10.38;;;13.70;99.90;;;;;;5101833;27;20039;-61
2021/12/26 05:21:12;;;;;;;17.30;8.35;;;13.70;99.90;;;;;;5118605;27;20039;-61
2021/12/26 05:23:40;;;;;;;24.95;9.55;;;13.70;99.90;;;;;;5118457;27;20122;-61
2021/12/26 05:26:08;;;;;;;20.85;8.95;;;13.70;99.90;;;;;;5118545;27;20489;-61
2021/12/26 05:28:35;;;;;;;32.47;9.70;;;13.70;99.90;;;;;;5101747;27;20047;-61
2021/12/26 05:31:05;;;;;;;23.50;9.40;;;13.60;99.90;;;;;;5118632;27;20073;-61
2021/12/26 05:33:51;;;;;;;21.60;7.93;;;13.60;99.90;;;;;;5118379;27;20420;-61
2021/12/26 05:36:18;;;;;;;18.25;8.35;;;13.60;99.90;;;;;;5136510;27;20043;-61
2021/12/26 05:38:48;;;;;;;25.17;10.55;;;13.60;99.90;;;;;;5101165;27;20048;-61
2021/12/26 05:41:16;;;;;;;25.02;8.80;;;13.70;99.90;;;;;;5118323;27;20051;-61
2021/12/26 05:44:11;;;;;;;23.10;9.38;;;13.60;99.90;;;;;;5128008;27;20517;-61
2021/12/26 05:46:42;;;;;;;25.90;9.77;;;13.60;99.90;;;;;;5118244;27;20039;-61
2021/12/26 05:49:09;;;;;;;22.90;10.02;;;13.60;99.90;;;;;;5118119;27;20367;-61
2021/12/26 05:51:48;;;;;;;22.85;9.52;;;13.60;99.90;;;;;;5117929;27;20043;-61
2021/12/26 05:54:38;;;;;;;24.70;9.27;;;13.60;99.90;;;;;;5118065;27;20031;-61
2021/12/26 05:57:06;;;;;;;20.92;8.13;;;13.60;99.90;;;;;;5117858;27;20042;-61
2021/12/26 05:59:34;;;;;;;18.90;9.27;;;13.50;99.90;;;;;;5117848;27;20043;-61
2021/12/26 06:02:02;;;;;;;21.85;9.88;;;13.50;99.90;;;;;;5100719;27;20086;-61
2021/12/26 06:04:32;;;;;;;18.88;8.95;;;13.50;99.90;;;;;;5117882;27;20042;-61
2021/12/26 06:07:00;;;;;;;20.95;7.90;;;13.60;99.90;;;;;;5117928;27;20043;-61
2021/12/26 06:09:29;;;;;;;19.30;8.82;;;13.60;99.90;;;;;;5117658;27;20456;-61
2021/12/26 06:11:57;;;;;;;18.20;8.75;;;13.60;99.90;;;;;;5117327;27;20099;-61
2021/12/26 06:14:24;;;;;;;25.83;10.25;;;13.60;99.90;;;;;;5116885;27;20059;-61
2021/12/26 06:16:52;;;;;;;18.23;8.50;;;13.60;99.90;;;;;;5100902;27;20066;-61
2021/12/26 06:19:58;;;;;;;28.77;9.98;;;13.60;99.90;;;;;;5052615;28;20048;-61
2021/12/26 06:22:52;;;;;;;21.13;9.52;;;13.60;99.90;;;;;;5036966;28;20537;-61
2021/12/26 06:25:42;;;;;;;36.15;12.07;;;13.60;99.90;;;;;;5120598;27;20108;-61
2021/12/26 06:28:21;;;;;;;19.17;9.63;;;13.50;99.90;;;;;;5100389;27;20443;-61
2021/12/26 06:31:12;;;;;;;21.58;8.95;;;13.50;99.90;;;;;;5104327;27;20047;-61
2021/12/26 06:34:01;;;;;;;22.70;9.43;;;13.50;99.90;;;;;;5116513;27;20397;-61
2021/12/26 06:36:47;;;;;;;32.88;10.27;;;13.50;99.90;;;;;;5117437;27;20051;-61
2021/12/26 06:39:33;;;;;;;20.67;9.30;;;13.50;99.90;;;;;;5135245;27;20115;-62
2021/12/26 06:42:19;;;;;;;23.50;10.60;;;13.50;99.90;;;;;;5120047;27;20053;-61
2021/12/26 06:45:18;;;;;;;24.52;9.73;;;13.50;99.90;;;;;;5103634;27;20047;-61
2021/12/26 06:48:07;;;;;;;18.95;8.63;;;13.50;99.90;;;;;;5124269;27;20079;-61
2021/12/26 06:50:36;;;;;;;26.88;10.45;;;13.50;99.90;;;;;;5117037;27;20477;-61
2021/12/26 06:53:04;;;;;;;26.08;9.90;;;13.50;99.90;;;;;;5099940;27;20039;-61
2021/12/26 06:55:32;;;;;;;24.27;11.10;;;13.50;99.90;;;;;;5116949;27;20047;-61
2021/12/26 06:57:59;;;;;;;22.20;10.07;;;13.50;99.90;;;;;;5116852;27;20047;-61
2021/12/26 07:00:27;;;;;;;29.33;12.20;;;13.50;99.90;;;;;;5099532;27;20043;-61
2021/12/26 07:02:55;;;;;;;27.10;11.02;;;13.50;99.90;;;;;;5100021;27;20083;-61
2021/12/26 07:05:22;;;;;;;21.88;9.68;;;13.40;99.90;;;;;;5104814;27;20042;-61
2021/12/26 07:08:05;;;;;;;21.20;9.45;;;13.40;99.90;;;;;;5106079;27;20047;-61
2021/12/26 07:10:35;;;;;;;23.67;11.30;;;13.40;99.90;;;;;;5074133;28;20413;-61
2021/12/26 07:13:03;;;;;;;18.08;9.65;;;13.40;99.90;;;;;;5089019;28;20059;-61
2021/12/26 07:15:35;;;;;;;26.05;10.70;;;13.40;99.90;;;;;;5089768;28;20120;-61
2021/12/26 07:18:03;;;;;;;27.90;10.63;;;13.40;99.90;;;;;;5078279;28;20071;-61
2021/12/26 07:20:34;;;;;;;21.10;10.68;;;13.40;99.90;;;;;;5094070;28;20096;-61
2021/12/26 07:23:34;;;;;;;22.67;10.45;;;13.40;99.90;;;;;;5040187;28;20048;-62
2021/12/26 07:26:09;;;;;;;16.48;9.27;;;13.50;99.90;;;;;;5088448;28;20123;-62
2021/12/26 07:28:37;;;;;;;21.25;10.05;;;13.50;99.90;;;;;;5099259;28;20501;-61
2021/12/26 07:31:14;;;;;;;18.05;9.70;;;13.50;99.90;;;;;;5094301;28;20140;-61
2021/12/26 07:33:43;;;;;;;20.63;8.05;;;13.60;99.90;;;;;;5089171;28;20047;-62
2021/12/26 07:36:11;;;;;;;36.63;10.65;;;13.60;99.90;;;;;;5104927;28;20513;-62
2021/12/26 07:38:56;;;;;;;22.58;9.48;;;13.60;99.90;;;;;;5116837;28;20521;-61
2021/12/26 07:41:33;;;;;;;15.35;7.97;;;13.70;99.90;;;;;;5092555;28;20402;-62
2021/12/26 07:44:01;;;;;;;28.13;10.73;;;13.70;99.90;;;;;;5092666;28;20048;-62
2021/12/26 07:46:47;;;;;;;23.23;9.57;;;13.70;99.90;;;;;;5110603;28;20421;-62
2021/12/26 07:49:20;;;;;;;30.23;10.20;;;13.80;99.90;;;;;;5109702;28;20032;-62
2021/12/26 07:52:18;;;;;;;27.35;10.57;;;13.80;99.90;;;;;;5107291;28;20036;-62
2021/12/26 07:55:05;;;;;;;23.17;9.10;;;13.80;99.90;;;;;;5110445;28;20050;-62
2021/12/26 07:57:51;;;;;;;30.50;9.95;;;13.80;99.90;;;;;;5107583;28;20375;-62
2021/12/26 08:00:37;;;;;;;30.40;11.25;;;13.90;99.90;;;;;;5107143;28;20702;-61
2021/12/26 08:03:25;;;;;;;18.67;10.00;;;13.90;99.90;;;;;;5093148;28;20034;-62
2021/12/26 08:06:18;;;;;;;20.15;8.82;;;14.00;99.90;;;;;;5087420;28;20040;-62
2021/12/26 08:08:50;;;;;;;23.05;9.38;;;14.00;99.90;;;;;;5094654;28;20092;-61
2021/12/26 08:11:18;;;;;;;20.77;9.68;;;14.00;99.90;;;;;;5084297;28;20069;-62
2021/12/26 08:13:46;;;;;;;23.23;9.88;;;14.00;99.90;;;;;;5092724;28;20054;-62
2021/12/26 08:16:14;;;;;;;23.48;10.60;;;14.10;99.90;;;;;;5089811;28;20482;-61
2021/12/26 08:18:42;;;;;;;22.67;11.90;;;14.10;99.90;;;;;;5107084;28;20059;-62
2021/12/26 08:21:10;;;;;;;23.13;9.90;;;14.20;99.90;;;;;;5111514;28;20131;-61
2021/12/26 08:23:37;;;;;;;28.20;10.05;;;14.40;99.90;;;;;;5098156;28;20043;-62
2021/12/26 08:26:05;;;;;;;17.83;8.90;;;14.40;99.90;;;;;;5105103;28;20040;-62
2021/12/26 08:28:33;;;;;;;22.67;7.47;;;14.60;99.90;;;;;;5051699;28;20052;-62
2021/12/26 08:31:01;;;;;;;32.72;9.65;;;14.80;99.90;;;;;;5108539;28;20047;-62
2021/12/26 08:33:28;;;;;;;24.55;12.82;;;15.00;99.90;;;;;;5117966;28;20427;-62
2021/12/26 08:35:56;;;;;;;20.38;11.73;;;15.10;99.90;;;;;;5124432;27;20051;-62
2021/12/26 08:38:24;;;;;;;20.88;9.93;;;15.40;99.90;;;;;;5113626;28;20036;-62
2021/12/26 08:40:55;;;;;;;27.45;10.57;;;15.50;99.90;;;;;;5077317;28;20079;-62
2021/12/26 08:43:22;;;;;;;22.75;10.65;;;15.70;99.90;;;;;;5064284;28;20036;-62
2021/12/26 08:45:50;;;;;;;18.20;8.75;;;15.70;99.90;;;;;;5092989;28;20040;-62
2021/12/26 08:48:18;;;;;;;19.02;10.30;;;15.80;99.90;;;;;;5096233;28;20054;-62
2021/12/26 08:50:47;;;;;;;23.25;12.93;;;15.90;99.90;;;;;;5114592;28;20040;-62
2021/12/26 08:53:14;;;;;;;22.63;11.20;;;15.90;99.90;;;;;;5116319;27;20035;-62
2021/12/26 08:55:42;;;;;;;23.10;11.00;;;16.10;99.90;;;;;;5118952;27;20046;-62
2021/12/26 08:58:10;;;;;;;24.50;8.90;;;16.30;99.90;;;;;;5108501;28;20036;-62
2021/12/26 09:00:38;;;;;;;18.35;9.30;;;16.30;99.90;;;;;;5095221;28;20478;-62
2021/12/26 09:03:05;;;;;;;22.80;7.85;;;16.40;99.90;;;;;;5115000;28;20044;-62
2021/12/26 09:05:33;;;;;;;19.65;8.35;;;16.40;99.90;;;;;;5115037;28;20404;-62
2021/12/26 09:08:06;;;;;;;22.08;10.43;;;16.70;99.90;;;;;;5116209;28;20101;-62
2021/12/26 09:10:34;;;;;;;19.63;8.30;;;16.80;99.90;;;;;;5098261;28;20055;-62
2021/12/26 09:13:02;;;;;;;15.73;6.53;;;17.00;99.90;;;;;;5116353;28;20044;-62
2021/12/26 09:15:30;;;;;;;21.70;7.80;;;17.10;99.90;;;;;;5098245;28;20043;-62
2021/12/26 09:17:59;;;;;;;20.85;7.35;;;17.20;99.90;;;;;;5116561;28;20046;-61
2021/12/26 09:20:27;;;;;;;15.88;7.70;;;17.20;99.90;;;;;;5116258;28;20028;-62
2021/12/26 09:22:56;;;;;;;16.50;7.55;;;17.00;99.90;;;;;;5116288;28;20048;-62
2021/12/26 09:25:25;;;;;;;29.38;8.65;;;16.70;99.90;;;;;;5116302;28;20139;-62
2021/12/26 09:27:53;;;;;;;13.52;6.93;;;16.50;99.90;;;;;;5116447;28;20039;-61
2021/12/26 09:30:22;;;;;;;20.20;7.93;;;16.40;99.90;;;;;;5098067;28;20385;-61
2021/12/26 09:32:50;;;;;;;21.33;8.95;;;16.30;99.90;;;;;;5097709;28;20035;-61
2021/12/26 09:35:18;;;;;;;10.73;6.07;;;16.30;99.90;;;;;;5097843;28;20048;-62
2021/12/26 09:37:46;;;;;;;19.45;6.75;;;16.40;99.90;;;;;;5097997;28;20386;-62
2021/12/26 09:40:15;;;;;;;15.43;7.55;;;16.40;99.90;;;;;;5064835;28;20066;-62
2021/12/26 09:42:44;;;;;;;12.10;6.68;;;16.70;99.90;;;;;;5116153;28;20134;-62
2021/12/26 09:45:13;;;;;;;14.80;6.38;;;16.90;99.90;;;;;;5115985;28;20555;-62
2021/12/26 09:47:42;;;;;;;16.27;7.68;;;17.20;99.90;;;;;;5097903;28;20125;-62
2021/12/26 09:50:13;;;;;;;17.45;6.80;;;17.30;99.90;;;;;;5080818;28;20039;-62
2021/12/26 09:52:45;;;;;;;15.57;7.55;;;17.40;99.90;;;;;;5097584;28;20119;-62
2021/12/26 09:55:14;;;;;;;19.92;7.43;;;17.40;99.90;;;;;;5115899;28;20035;-62
2021/12/26 09:57:42;;;;;;;13.43;5.80;;;17.50;99.90;;;;;;5097829;28;20036;-62
2021/12/26 10:00:37;;;;;;;17.55;6.75;;;17.60;99.90;;;;;;5097768;28;20047;-62
2021/12/26 10:03:19;;;;;;;15.48;5.45;;;17.60;99.90;;;;;;5080616;28;20055;-62
2021/12/26 10:06:17;;;;;;;14.15;7.45;;;17.60;99.90;;;;;;5080814;28;20502;-63
2021/12/26 10:09:11;;;;;;;16.10;5.82;;;17.70;99.90;;;;;;5115293;28;20044;-63
2021/12/26 10:11:51;;;;;;;17.63;5.95;;;17.70;99.90;;;;;;5094917;28;20043;-61
2021/12/26 10:14:30;;;;;;;20.98;6.55;;;17.70;99.90;;;;;;5080813;28;20047;-62
2021/12/26 10:17:07;;;;;;;20.30;5.93;;;17.90;99.90;;;;;;5115576;28;20212;-62
2021/12/26 10:19:37;;;;;;;11.10;4.75;;;18.00;99.90;;;;;;5115009;28;20489;-63
2021/12/26 10:22:06;;;;;;;14.40;7.10;;;18.20;99.90;;;;;;5115122;28;20104;-63
2021/12/26 10:24:36;;;;;;;14.88;5.60;;;18.20;99.90;;;;;;5079711;28;20082;-63
2021/12/26 10:27:16;;;;;;;20.90;7.05;;;18.30;99.90;;;;;;5097311;28;20040;-63
2021/12/26 10:29:46;;;;;;;9.15;5.38;;;18.40;99.90;;;;;;5114899;28;20512;-63
2021/12/26 10:32:19;;;;;;;16.27;7.82;;;18.50;99.90;;;;;;5096304;28;20044;-63
2021/12/26 10:34:59;;;;;;;16.90;7.13;;;18.40;99.90;;;;;;5080169;28;20082;-63
2021/12/26 10:37:45;;;;;;;12.48;5.60;;;18.50;99.90;;;;;;5079608;28;20402;-63
2021/12/26 10:40:25;;;;;;;26.17;9.85;;;18.60;99.90;;;;;;5096413;28;20032;-63
2021/12/26 10:43:02;;;;;;;15.68;6.30;;;18.60;99.90;;;;;;5079403;28;20048;-63
2021/12/26 10:45:33;;;;;;;19.15;6.25;;;18.40;99.90;;;;;;5096448;28;20040;-63
2021/12/26 10:48:05;;;;;;;14.30;5.63;;;18.40;99.90;;;;;;5079804;28;20122;-63
2021/12/26 10:50:37;;;;;;;13.18;7.18;;;18.40;99.90;;;;;;5114335;28;20119;-63
2021/12/26 10:53:07;;;;;;;13.60;6.15;;;18.30;99.90;;;;;;5095884;28;20375;-64
2021/12/26 10:55:51;;;;;;;20.17;6.13;;;18.30;99.90;;;;;;5095753;28;20067;-63
2021/12/26 10:58:21;;;;;;;15.70;7.45;;;18.30;99.90;;;;;;5113320;28;20494;-63
2021/12/26 11:00:53;;;;;;;10.35;5.22;;;18.30;99.90;;;;;;5113903;28;20089;-64
2021/12/26 11:03:24;;;;;;;13.55;6.18;;;18.30;99.90;;;;;;5079610;28;20047;-63
2021/12/26 11:06:06;;;;;;;9.45;5.30;;;18.30;99.90;;;;;;5096260;28;20143;-63
2021/12/26 11:08:36;;;;;;;16.55;6.95;;;18.40;99.90;;;;;;5114327;28;20089;-63
2021/12/26 11:11:16;;;;;;;13.18;7.45;;;18.40;99.90;;;;;;5114317;28;20040;-63
2021/12/26 11:13:45;;;;;;;18.98;6.75;;;18.40;99.90;;;;;;5095635;28;20138;-63
2021/12/26 11:16:15;;;;;;;14.35;7.72;;;18.40;99.90;;;;;;5113762;28;20071;-63
2021/12/26 11:18:52;;;;;;;14.60;6.95;;;18.20;99.90;;;;;;5113997;28;20043;-63
2021/12/26 11:21:20;;;;;;;12.70;6.90;;;18.10;99.90;;;;;;5113819;28;20054;-63
2021/12/26 11:23:47;;;;;;;17.73;7.53;;;18.00;99.90;;;;;;5096210;28;20032;-64
2021/12/26 11:26:19;;;;;;;11.57;7.43;;;18.10;99.90;;;;;;5079259;28;20143;-63
2021/12/26 11:28:53;;;;;;;15.27;6.90;;;18.10;99.90;;;;;;5095031;28;20043;-61
2021/12/26 11:31:23;;;;;;;18.67;7.60;;;18.20;99.90;;;;;;5095701;28;20146;-62
2021/12/26 11:33:56;;;;;;;18.67;8.13;;;18.20;99.90;;;;;;5095804;28;20383;-62
2021/12/26 11:36:26;;;;;;;15.15;5.00;;;18.30;99.90;;;;;;5078974;28;20420;-62
2021/12/26 11:39:08;;;;;;;12.73;5.35;;;18.20;99.90;;;;;;5078638;28;20051;-62
2021/12/26 11:42:04;;;;;;;11.43;5.68;;;18.00;99.90;;;;;;5098484;28;20073;-63
2021/12/26 11:45:05;;;;;;;12.20;6.47;;;18.10;99.90;;;;;;5085465;28;20052;-62
2021/12/26 11:48:20;;;;;;;13.98;6.30;;;18.20;99.90;;;;;;5113515;28;20061;-63
2021/12/26 11:51:44;;;;;;;10.27;5.47;;;18.40;99.90;;;;;;5113550;28;20478;-64
2021/12/26 11:54:55;;;;;;;30.50;7.07;;;18.50;99.90;;;;;;5113767;28;20093;-63
2021/12/26 11:57:49;;;;;;;11.90;6.32;;;18.30;99.90;;;;;;5078834;28;20040;-63
2021/12/26 12:00:34;;;;;;;20.40;7.50;;;18.20;99.90;;;;;;5062185;28;20050;-63
2021/12/26 12:03:05;;;;;;;15.95;7.15;;;18.20;99.90;;;;;;5113001;28;20379;-66
2021/12/26 12:05:43;;;;;;;10.90;5.78;;;18.20;99.90;;;;;;5061349;28;20074;-63
2021/12/26 12:08:17;;;;;;;16.83;7.10;;;18.10;99.90;;;;;;5095160;28;20598;-63
2021/12/26 12:10:57;;;;;;;13.25;6.97;;;18.10;99.90;;;;;;5061703;28;20419;-63
2021/12/26 12:13:51;;;;;;;9.93;5.38;;;18.00;99.90;;;;;;5065917;28;20047;-63
2021/12/26 12:16:24;;;;;;;17.73;6.85;;;17.90;99.90;;;;;;5117415;28;20472;-63
2021/12/26 12:18:56;;;;;;;16.75;7.95;;;17.90;99.90;;;;;;5082727;28;20083;-62
2021/12/26 12:21:41;;;;;;;17.25;6.63;;;17.80;99.90;;;;;;5065902;28;20051;-63
2021/12/26 12:24:25;;;;;;;13.85;7.97;;;17.70;99.90;;;;;;5117421;28;20044;-63
2021/12/26 12:26:53;;;;;;;13.57;6.38;;;17.80;99.90;;;;;;5117356;28;20043;-64
2021/12/26 12:29:29;;;;;;;16.00;5.90;;;17.80;99.90;;;;;;5117331;28;20046;-65
2021/12/26 12:32:09;;;;;;;15.25;7.28;;;17.80;99.90;;;;;;5099308;28;20040;-62
2021/12/26 12:34:57;;;;;;;12.43;6.07;;;17.80;99.90;;;;;;5099883;28;20498;-62
2021/12/26 12:37:45;;;;;;;13.98;6.93;;;17.80;99.90;;;;;;5099201;28;20371;-64
2021/12/26 12:40:37;;;;;;;12.85;6.20;;;17.70;99.90;;;;;;5065608;28;20112;-63
2021/12/26 12:43:12;;;;;;;12.52;5.88;;;17.70;99.90;;;;;;5082435;28;20401;-64
2021/12/26 12:45:52;;;;;;;20.65;7.10;;;17.70;99.90;;;;;;5082134;28;20040;-63
2021/12/26 12:48:33;;;;;;;16.17;6.88;;;17.70;99.90;;;;;;5098869;28;20046;-63
2021/12/26 12:51:15;;;;;;;18.08;7.63;;;17.60;99.90;;;;;;5081887;28;20477;-63
2021/12/26 12:53:43;;;;;;;16.23;8.10;;;17.60;99.90;;;;;;5098761;28;20050;-63
2021/12/26 12:56:33;;;;;;;13.63;6.35;;;17.70;99.90;;;;;;5116611;28;20093;-65
2021/12/26 13:01:42;;;;;;;13.85;6.50;;;17.50;99.90;;;;;;5098863;28;20078;-63
2021/12/26 13:04:11;;;;;;;16.15;6.00;;;17.50;99.90;;;;;;5116940;28;20075;-63
2021/12/26 13:06:54;;;;;;;12.63;6.32;;;17.50;99.90;;;;;;5116715;28;20615;-63
2021/12/26 13:09:22;;;;;;;20.88;8.63;;;17.60;99.90;;;;;;5080879;28;20044;-63
2021/12/26 13:11:51;;;;;;;18.75;7.22;;;17.60;99.90;;;;;;5081367;28;20052;-64
2021/12/26 13:14:38;;;;;;;10.90;5.70;;;17.60;99.90;;;;;;5116355;28;20430;-63
2021/12/26 13:17:09;;;;;;;13.13;5.63;;;17.60;99.90;;;;;;5081652;28;20442;-63